www.cux-wetter.de
Wetterdaten: Sonntag, 26.01.2014
Datum Zeit Temp. A. Feuchte A. Luftdruck Regen Wind Richtung Richtung Sonnenschein Solar Taupunkt Windchill Windben
26.01.2014 00:00 -6,6 C 71 % 1008,5 hPa 0,0 l/m 28,5 km/h (5 Bft) SO 145 0 min 0 W/m -11,0 C -22,1 C 28,5 km/h (5 Bft)
26.01.2014 00:15 -6,6 C 71 % 1007,5 hPa 0,0 l/m 35,1 km/h (5 Bft) S-SO 165 0 min 0 W/m -11,0 C -24,4 C 35,1 km/h (5 Bft)
26.01.2014 00:30 -6,7 C 71 % 1007,5 hPa 0,0 l/m 30,2 km/h (5 Bft) S-SO 155 0 min 0 W/m -11,1 C -22,9 C 30,2 km/h (5 Bft)
26.01.2014 00:45 -6,6 C 71 % 1007,5 hPa 0,0 l/m 25,6 km/h (4 Bft) S-SO 160 0 min 0 W/m -11,0 C -20,9 C 25,6 km/h (4 Bft)
26.01.2014 01:00 -6,6 C 71 % 1007,5 hPa 0,0 l/m 27,6 km/h (5 Bft) S-SO 150 0 min 0 W/m -11,0 C -21,8 C 27,6 km/h (5 Bft)
26.01.2014 01:15 -6,5 C 70 % 1007,5 hPa 0,0 l/m 27,5 km/h (5 Bft) S 170 0 min 0 W/m -11,0 C -21,6 C 27,5 km/h (5 Bft)
26.01.2014 01:30 -6,4 C 70 % 1008,5 hPa 0,0 l/m 22,7 km/h (4 Bft) S-SO 150 0 min 0 W/m -10,9 C -19,3 C 22,7 km/h (4 Bft)
26.01.2014 01:45 -6,3 C 69 % 1008,5 hPa 0,0 l/m 22,5 km/h (4 Bft) S-SO 165 0 min 0 W/m -11,0 C -19,1 C 22,5 km/h (4 Bft)
26.01.2014 02:00 -6,3 C 70 % 1008,5 hPa 0,0 l/m 29,4 km/h (5 Bft) S-SO 155 0 min 0 W/m -10,9 C -22,0 C 29,4 km/h (5 Bft)
26.01.2014 02:15 -6,1 C 71 % 1007,5 hPa 0,0 l/m 26,5 km/h (4 Bft) S-SO 150 0 min 0 W/m -10,5 C -20,6 C 26,5 km/h (4 Bft)
26.01.2014 02:30 -6,1 C 70 % 1007,5 hPa 0,0 l/m 24,6 km/h (4 Bft) SO 140 0 min 0 W/m -10,7 C -19,8 C 24,6 km/h (4 Bft)
26.01.2014 02:45 -6,1 C 70 % 1008,5 hPa 0,0 l/m 24,5 km/h (4 Bft) SO 130 0 min 0 W/m -10,7 C -19,8 C 24,5 km/h (4 Bft)
26.01.2014 03:00 -6,1 C 70 % 1008,5 hPa 0,0 l/m 27,1 km/h (5 Bft) SO 135 0 min 0 W/m -10,7 C -20,9 C 27,1 km/h (5 Bft)
26.01.2014 03:15 -6,1 C 69 % 1008,5 hPa 0,0 l/m 26,6 km/h (4 Bft) SO 140 0 min 0 W/m -10,8 C -20,7 C 26,6 km/h (4 Bft)
26.01.2014 03:30 -6,2 C 70 % 1008,5 hPa 0,0 l/m 26,8 km/h (4 Bft) SO 135 0 min 0 W/m -10,8 C -20,9 C 26,8 km/h (4 Bft)
26.01.2014 03:45 -6,1 C 70 % 1008,5 hPa 0,0 l/m 22,3 km/h (4 Bft) SO 130 0 min 0 W/m -10,7 C -18,7 C 22,3 km/h (4 Bft)
26.01.2014 04:00 -6,3 C 69 % 1008,5 hPa 0,0 l/m 26,6 km/h (4 Bft) SO 135 0 min 0 W/m -11,0 C -20,9 C 26,6 km/h (4 Bft)
26.01.2014 04:15 -6,3 C 69 % 1008,5 hPa 0,0 l/m 30,6 km/h (5 Bft) O-SO 110 0 min 0 W/m -11,0 C -22,5 C 30,6 km/h (5 Bft)
26.01.2014 04:30 -6,2 C 69 % 1008,5 hPa 0,0 l/m 25,6 km/h (4 Bft) SO 130 0 min 0 W/m -10,9 C -20,4 C 25,6 km/h (4 Bft)
26.01.2014 04:45 -6,0 C 69 % 1009,5 hPa 0,0 l/m 34,5 km/h (5 Bft) SO 140 0 min 0 W/m -10,7 C -23,3 C 34,5 km/h (5 Bft)
26.01.2014 05:00 -6,0 C 68 % 1009,5 hPa 0,0 l/m 24,7 km/h (4 Bft) SO 125 0 min 0 W/m -10,9 C -19,7 C 24,7 km/h (4 Bft)
26.01.2014 05:15 -6,0 C 68 % 1009,5 hPa 0,0 l/m 24,1 km/h (4 Bft) SO 130 0 min 0 W/m -10,9 C -19,4 C 24,1 km/h (4 Bft)
26.01.2014 05:30 -6,0 C 69 % 1009,5 hPa 0,0 l/m 24,1 km/h (4 Bft) O-SO 120 0 min 0 W/m -10,7 C -19,4 C 24,1 km/h (4 Bft)
26.01.2014 05:45 -6,2 C 68 % 1009,5 hPa 0,0 l/m 24,8 km/h (4 Bft) SO 145 0 min 0 W/m -11,1 C -20,0 C 24,8 km/h (4 Bft)
26.01.2014 06:00 -6,3 C 68 % 1010,5 hPa 0,0 l/m 24,7 km/h (4 Bft) SO 135 0 min 0 W/m -11,2 C -20,1 C 24,7 km/h (4 Bft)
26.01.2014 06:15 -6,3 C 68 % 1010,5 hPa 0,0 l/m 19,1 km/h (3 Bft) SO 135 0 min 0 W/m -11,2 C -17,3 C 19,1 km/h (3 Bft)
26.01.2014 06:30 -6,3 C 68 % 1010,5 hPa 0,0 l/m 22,7 km/h (4 Bft) SO 140 0 min 0 W/m -11,2 C -19,2 C 22,7 km/h (4 Bft)
26.01.2014 06:45 -6,4 C 68 % 1010,5 hPa 0,0 l/m 28,8 km/h (5 Bft) S-SO 165 0 min 0 W/m -11,3 C -22,0 C 28,8 km/h (5 Bft)
26.01.2014 07:00 -6,6 C 68 % 1010,5 hPa 0,0 l/m 24,3 km/h (4 Bft) S-SO 150 0 min 0 W/m -11,5 C -20,3 C 24,3 km/h (4 Bft)
26.01.2014 07:15 -6,8 C 69 % 1010,5 hPa 0,0 l/m 28,3 km/h (5 Bft) SO 135 0 min 0 W/m -11,5 C -22,3 C 28,3 km/h (5 Bft)
26.01.2014 07:30 -7,1 C 70 % 1011,5 hPa 0,0 l/m 26,3 km/h (4 Bft) S-SO 155 0 min 0 W/m -11,6 C -21,9 C 26,3 km/h (4 Bft)
26.01.2014 07:45 -7,2 C 70 % 1010,5 hPa 0,0 l/m 21,9 km/h (4 Bft) S-SO 155 0 min 0 W/m -11,7 C -20,0 C 21,9 km/h (4 Bft)
26.01.2014 08:00 -7,1 C 70 % 1010,5 hPa 0,0 l/m 21,1 km/h (4 Bft) S-SO 165 0 min 0 W/m -11,6 C -19,4 C 21,1 km/h (4 Bft)
26.01.2014 08:15 -7,2 C 71 % 1011,5 hPa 0,0 l/m 21,7 km/h (4 Bft) S 175 0 min 0 W/m -11,5 C -19,9 C 21,7 km/h (4 Bft)
26.01.2014 08:30 -7,4 C 71 % 1011,5 hPa 0,0 l/m 31,0 km/h (5 Bft) S-SO 165 0 min 0 W/m -11,7 C -24,2 C 31,0 km/h (5 Bft)
26.01.2014 08:45 -7,5 C 72 % 1010,5 hPa 0,0 l/m 24,3 km/h (4 Bft) S-SO 150 0 min 0 W/m -11,7 C -21,6 C 24,3 km/h (4 Bft)
26.01.2014 09:00 -7,5 C 72 % 1010,5 hPa 0,0 l/m 18,6 km/h (3 Bft) S-SO 155 0 min 0 W/m -11,7 C -18,5 C 18,6 km/h (3 Bft)
26.01.2014 09:15 -7,5 C 73 % 1011,5 hPa 0,0 l/m 23,6 km/h (4 Bft) S-SO 160 0 min 0 W/m -11,5 C -21,2 C 23,6 km/h (4 Bft)
26.01.2014 09:30 -7,7 C 72 % 1011,5 hPa 0,0 l/m 24,0 km/h (4 Bft) SO 145 0 min 0 W/m -11,8 C -21,7 C 24,0 km/h (4 Bft)
26.01.2014 09:45 -7,9 C 73 % 1011,5 hPa 0,0 l/m 25,8 km/h (4 Bft) S-SO 150 0 min 0 W/m -11,9 C -22,8 C 25,8 km/h (4 Bft)
26.01.2014 10:00 -7,9 C 73 % 1011,5 hPa 0,0 l/m 23,1 km/h (4 Bft) SO 145 0 min 0 W/m -11,9 C -21,5 C 23,1 km/h (4 Bft)
26.01.2014 10:15 -7,8 C 73 % 1011,5 hPa 0,0 l/m 21,3 km/h (4 Bft) SO 140 0 min 0 W/m -11,8 C -20,4 C 21,3 km/h (4 Bft)
26.01.2014 10:30 -7,9 C 73 % 1010,5 hPa 0,0 l/m 23,8 km/h (4 Bft) S 170 0 min 0 W/m -11,9 C -21,9 C 23,8 km/h (4 Bft)
26.01.2014 10:45 -7,5 C 74 % 1010,5 hPa 0,0 l/m 20,6 km/h (4 Bft) S-SO 155 0 min 0 W/m -11,3 C -19,7 C 20,6 km/h (4 Bft)
26.01.2014 11:00 -7,6 C 73 % 1010,5 hPa 0,0 l/m 28,8 km/h (5 Bft) S-SO 160 0 min 0 W/m -11,6 C -23,6 C 28,8 km/h (5 Bft)
26.01.2014 11:15 -7,5 C 73 % 1010,5 hPa 0,0 l/m 21,8 km/h (4 Bft) SO 140 0 min 0 W/m -11,5 C -20,3 C 21,8 km/h (4 Bft)
26.01.2014 11:30 -6,8 C 74 % 1010,5 hPa 0,0 l/m 27,7 km/h (5 Bft) S-SO 155 0 min 0 W/m -10,6 C -22,1 C 27,7 km/h (5 Bft)
26.01.2014 11:45 -6,9 C 73 % 1009,5 hPa 0,0 l/m 22,8 km/h (4 Bft) SO 140 0 min 0 W/m -10,9 C -20,0 C 22,8 km/h (4 Bft)
26.01.2014 12:00 -6,7 C 73 % 1009,5 hPa 0,0 l/m 20,3 km/h (4 Bft) S-SO 160 0 min 0 W/m -10,7 C -18,5 C 20,3 km/h (4 Bft)
26.01.2014 12:15 -6,7 C 73 % 1009,5 hPa 0,0 l/m 18,8 km/h (3 Bft) S-SO 150 0 min 0 W/m -10,7 C -17,6 C 18,8 km/h (3 Bft)
26.01.2014 12:30 -6,5 C 71 % 1009,5 hPa 0,0 l/m 23,8 km/h (4 Bft) S 185 0 min 0 W/m -10,9 C -20,0 C 23,8 km/h (4 Bft)
26.01.2014 12:45 -6,3 C 71 % 1009,5 hPa 0,0 l/m 26,1 km/h (4 Bft) S 185 0 min 0 W/m -10,7 C -20,7 C 26,1 km/h (4 Bft)
26.01.2014 13:00 -5,9 C 70 % 1008,5 hPa 0,0 l/m 25,4 km/h (4 Bft) S-SO 165 0 min 0 W/m -10,5 C -19,9 C 25,4 km/h (4 Bft)
26.01.2014 13:15 -5,7 C 69 % 1008,5 hPa 0,0 l/m 18,0 km/h (3 Bft) S-SO 150 0 min 0 W/m -10,5 C -15,8 C 18,0 km/h (3 Bft)
26.01.2014 13:30 -5,5 C 70 % 1008,5 hPa 0,0 l/m 21,7 km/h (4 Bft) S 170 0 min 0 W/m -10,1 C -17,6 C 21,7 km/h (4 Bft)
26.01.2014 13:45 -6,2 C 69 % 1007,5 hPa 0,0 l/m 22,4 km/h (4 Bft) SO 145 0 min 0 W/m -10,9 C -18,9 C 22,4 km/h (4 Bft)
26.01.2014 14:00 -6,2 C 70 % 1007,5 hPa 0,0 l/m 26,0 km/h (4 Bft) S 170 0 min 0 W/m -10,8 C -20,6 C 26,0 km/h (4 Bft)
26.01.2014 14:15 -6,2 C 70 % 1006,5 hPa 0,0 l/m 20,0 km/h (4 Bft) S 180 0 min 0 W/m -10,8 C -17,6 C 20,0 km/h (4 Bft)
26.01.2014 14:30 -6,1 C 70 % 1006,5 hPa 0,0 l/m 28,5 km/h (5 Bft) S 175 0 min 0 W/m -10,7 C -21,4 C 28,5 km/h (5 Bft)
26.01.2014 14:45 -6,3 C 71 % 1005,5 hPa 0,0 l/m 23,9 km/h (4 Bft) SO 140 0 min 0 W/m -10,7 C -19,8 C 23,9 km/h (4 Bft)
26.01.2014 15:00 -6,3 C 72 % 1005,5 hPa 0,0 l/m 26,1 km/h (4 Bft) S 170 0 min 0 W/m -10,5 C -20,7 C 26,1 km/h (4 Bft)
26.01.2014 15:15 -6,5 C 72 % 1005,5 hPa 0,0 l/m 25,8 km/h (4 Bft) S 175 0 min 0 W/m -10,7 C -20,9 C 25,8 km/h (4 Bft)
26.01.2014 15:30 -6,5 C 73 % 1005,5 hPa 0,0 l/m 24,3 km/h (4 Bft) S-SO 165 0 min 0 W/m -10,5 C -20,2 C 24,3 km/h (4 Bft)
26.01.2014 15:45 -6,5 C 73 % 1005,5 hPa 0,0 l/m 24,6 km/h (4 Bft) S 185 0 min 0 W/m -10,5 C -20,3 C 24,6 km/h (4 Bft)
26.01.2014 16:00 -6,3 C 73 % 1005,5 hPa 0,0 l/m 25,0 km/h (4 Bft) S 180 0 min 0 W/m -10,3 C -20,3 C 25,0 km/h (4 Bft)
26.01.2014 16:15 -6,7 C 73 % 1004,5 hPa 0,0 l/m 23,5 km/h (4 Bft) S-SO 160 0 min 0 W/m -10,7 C -20,1 C 23,5 km/h (4 Bft)
26.01.2014 16:30 -6,6 C 73 % 1004,5 hPa 0,0 l/m 30,9 km/h (5 Bft) S 190 0 min 0 W/m -10,6 C -23,0 C 30,9 km/h (5 Bft)
26.01.2014 16:45 -6,7 C 73 % 1004,5 hPa 0,0 l/m 27,6 km/h (5 Bft) SO 140 0 min 0 W/m -10,7 C -21,9 C 27,6 km/h (5 Bft)
26.01.2014 17:00 -6,6 C 73 % 1004,5 hPa 0,0 l/m 23,5 km/h (4 Bft) S 170 0 min 0 W/m -10,6 C -20,0 C 23,5 km/h (4 Bft)
26.01.2014 17:15 -6,8 C 73 % 1003,5 hPa 0,0 l/m 33,4 km/h (5 Bft) S-SO 150 0 min 0 W/m -10,8 C -24,1 C 33,4 km/h (5 Bft)
26.01.2014 17:30 -6,8 C 73 % 1003,5 hPa 0,0 l/m 25,1 km/h (4 Bft) S-SO 155 0 min 0 W/m -10,8 C -21,0 C 25,1 km/h (4 Bft)
26.01.2014 17:44 -6,7 C 74 % 1002,5 hPa 0,0 l/m 22,6 km/h (4 Bft) SO 145 0 min 0 W/m -10,5 C -19,7 C 22,6 km/h (4 Bft)
26.01.2014 18:00 -6,9 C 75 % 1002,5 hPa 0,0 l/m 29,1 km/h (5 Bft) S-SO 155 0 min 0 W/m -10,6 C -22,8 C 29,1 km/h (5 Bft)
26.01.2014 18:15 -7,0 C 76 % 1001,5 hPa 0,0 l/m 30,0 km/h (5 Bft) S-SO 165 0 min 0 W/m -10,5 C -23,3 C 30,0 km/h (5 Bft)
26.01.2014 18:30 -7,1 C 77 % 1001,5 hPa 0,0 l/m 27,0 km/h (5 Bft) S-SO 155 0 min 0 W/m -10,4 C -22,2 C 27,0 km/h (5 Bft)
26.01.2014 18:45 -7,1 C 78 % 1001,5 hPa 0,0 l/m 23,6 km/h (4 Bft) S-SO 150 0 min 0 W/m -10,3 C -20,7 C 23,6 km/h (4 Bft)
26.01.2014 19:00 -7,1 C 78 % 1000,5 hPa 0,0 l/m 27,3 km/h (5 Bft) S 180 0 min 0 W/m -10,3 C -22,3 C 27,3 km/h (5 Bft)
26.01.2014 19:15 -7,2 C 78 % 1000,5 hPa 0,0 l/m 31,4 km/h (5 Bft) S 175 0 min 0 W/m -10,4 C -24,0 C 31,4 km/h (5 Bft)
26.01.2014 19:30 -7,2 C 77 % 999,5 hPa 0,0 l/m 30,5 km/h (5 Bft) S-SO 165 0 min 0 W/m -10,5 C -23,7 C 30,5 km/h (5 Bft)
26.01.2014 19:45 -7,2 C 78 % 999,5 hPa 0,0 l/m 26,8 km/h (4 Bft) S 185 0 min 0 W/m -10,4 C -22,3 C 26,8 km/h (4 Bft)
26.01.2014 20:00 -7,2 C 78 % 999,5 hPa 0,0 l/m 26,9 km/h (4 Bft) S 170 0 min 0 W/m -10,4 C -22,3 C 26,9 km/h (4 Bft)
26.01.2014 20:15 -7,2 C 78 % 998,5 hPa 0,0 l/m 29,6 km/h (5 Bft) S 170 0 min 0 W/m -10,4 C -23,4 C 29,6 km/h (5 Bft)
26.01.2014 20:30 -7,2 C 78 % 997,5 hPa 0,0 l/m 32,7 km/h (5 Bft) S-SO 165 0 min 0 W/m -10,4 C -24,5 C 32,7 km/h (5 Bft)
26.01.2014 20:45 -7,2 C 78 % 997,5 hPa 0,0 l/m 31,1 km/h (5 Bft) S 180 0 min 0 W/m -10,4 C -23,9 C 31,1 km/h (5 Bft)
26.01.2014 21:00 -7,3 C 78 % 997,5 hPa 0,0 l/m 28,1 km/h (5 Bft) S-SO 160 0 min 0 W/m -10,5 C -22,9 C 28,1 km/h (5 Bft)
26.01.2014 21:15 -7,2 C 78 % 996,5 hPa 0,0 l/m 31,9 km/h (5 Bft) S-SO 160 0 min 0 W/m -10,4 C -24,2 C 31,9 km/h (5 Bft)
26.01.2014 21:30 -7,2 C 79 % 996,5 hPa 0,0 l/m 36,7 km/h (5 Bft) S 170 0 min 0 W/m -10,2 C -25,7 C 36,7 km/h (5 Bft)
26.01.2014 21:45 -7,1 C 79 % 996,5 hPa 0,0 l/m 28,6 km/h (5 Bft) S-SO 160 0 min 0 W/m -10,1 C -22,9 C 28,6 km/h (5 Bft)
26.01.2014 21:59 -7,0 C 79 % 995,5 hPa 0,0 l/m 31,0 km/h (5 Bft) SO 140 0 min 0 W/m -10,0 C -23,6 C 31,0 km/h (5 Bft)
26.01.2014 22:15 -7,0 C 79 % 995,5 hPa 0,0 l/m 26,8 km/h (4 Bft) S-SO 155 0 min 0 W/m -10,0 C -22,0 C 26,8 km/h (4 Bft)
26.01.2014 22:30 -6,9 C 80 % 994,5 hPa 0,0 l/m 28,2 km/h (5 Bft) SO 130 0 min 0 W/m -9,8 C -22,4 C 28,2 km/h (5 Bft)
26.01.2014 22:45 -6,9 C 80 % 994,5 hPa 0,0 l/m 28,3 km/h (5 Bft) SO 130 0 min 0 W/m -9,8 C -22,5 C 28,3 km/h (5 Bft)
26.01.2014 23:00 -6,9 C 80 % 994,5 hPa 0,0 l/m 24,7 km/h (4 Bft) SO 135 0 min 0 W/m -9,8 C -20,9 C 24,7 km/h (4 Bft)
26.01.2014 23:15 -6,8 C 80 % 993,5 hPa 0,0 l/m 28,5 km/h (5 Bft) S-SO 155 0 min 0 W/m -9,7 C -22,4 C 28,5 km/h (5 Bft)
26.01.2014 23:30 -6,6 C 81 % 993,5 hPa 0,0 l/m 26,8 km/h (4 Bft) SO 140 0 min 0 W/m -9,3 C -21,4 C 26,8 km/h (4 Bft)
26.01.2014 23:45 -6,4 C 81 % 993,5 hPa 0,0 l/m 28,9 km/h (5 Bft) S 175 0 min 0 W/m -9,1 C -22,0 C 28,9 km/h (5 Bft)
_ Min-Zeit 09:45 05:00 23:15 - 13:15 - - - - 09:45 21:30 13:15
Minimum _ -7,9 C 68 % 993,5 hPa - 18,0 km/h (3 Bft) - - - - -11,9 C -25,7 C 18,0 km/h (3 Bft)
_ Max-Zeit 13:30 23:30 07:30 00:00 21:30 - - 00:00 00:00 23:45 13:15 21:30
Maximum _ -5,5 C 81 % 1011,5 hPa 0,0 l/m 36,7 km/h
S (5 Bft)
- - 0 min 0 W/m -9,1 C -15,8 C 36,7 km/h
S (5 Bft)
Durchschnitt _ -6,7 C 73 % 1005,8 hPa #0,0 l/m 26,0 km/h (4 Bft) S-SO - #0 min. 0 W/m -10,8 C -21,2 C 26,0 km/h (4 Bft)
copyright by Holger Just